Time;durP1;ratioP1;P1;durP2;ratioP2;P2;SDS_P1;SDS_P2;PMS_P1;PMS_P2;Temp;Humidity;BMP_temperature;BMP_pressure;BME280_temperature;BME280_humidity;BME280_pressure;Samples;Min_cycle;Max_cycle;Signal;HPM_P1;HPM_P2
2021/07/08 00:04:52;;;;;;;1.70;1.60;;;;;;;17.29;71.18;99147.50;262588;1090;22768;-71
2021/07/08 00:09:57;;;;;;;2.37;1.90;;;;;;;17.26;71.12;99157.09;262443;1089;22793;-74
2021/07/08 00:15:08;;;;;;;1.85;1.75;;;;;;;17.24;71.29;99155.81;262880;1090;22825;-72
2021/07/08 00:20:17;;;;;;;2.40;1.50;;;;;;;17.22;71.40;99156.14;262783;1088;22793;-72
2021/07/08 00:25:36;;;;;;;1.83;1.60;;;;;;;17.20;71.53;99161.06;262794;1089;27076;-72
2021/07/08 00:30:42;;;;;;;;;;;;;;;17.16;71.46;99146.59;262720;1089;26267;-72
2021/07/08 00:35:47;;;;;;;1.75;1.40;;;;;;;17.09;71.41;99151.70;262448;1090;21463;-72
2021/07/08 00:40:51;;;;;;;1.55;1.45;;;;;;;17.03;71.64;99148.38;262372;1090;22768;-72
2021/07/08 00:45:55;;;;;;;2.30;1.60;;;;;;;16.99;71.66;99154.77;262860;1089;25768;-72
2021/07/08 00:50:59;;;;;;;3.20;1.60;;;;;;;16.95;71.75;99148.41;262820;1090;23345;-70
2021/07/08 00:56:04;;;;;;;3.03;1.77;;;;;;;16.91;72.08;99143.64;262362;1090;22822;-72
2021/07/08 01:01:08;;;;;;;2.80;1.90;;;;;;;16.88;72.28;99144.26;262398;1089;22774;-70
2021/07/08 01:06:12;;;;;;;2.65;1.85;;;;;;;16.85;72.27;99131.35;262921;1090;22789;-71
2021/07/08 01:11:15;;;;;;;3.85;1.90;;;;;;;16.82;72.16;99140.11;262566;1089;22792;-72
2021/07/08 01:16:20;;;;;;;4.30;1.70;;;;;;;16.79;72.50;99151.59;262343;1088;22844;-72
2021/07/08 01:21:31;;;;;;;1.80;1.70;;;;;;;16.73;72.74;99152.84;262514;1088;22786;-71
2021/07/08 01:26:53;;;;;;;2.10;2.00;;;;;;;16.68;72.79;99161.93;262780;1089;22756;-72
2021/07/08 01:31:57;;;;;;;5.15;2.05;;;;;;;16.59;72.97;99183.58;262284;1089;24304;-72
2021/07/08 01:37:03;;;;;;;1.95;1.80;;;;;;;16.55;73.05;99176.40;262681;1089;23584;-73
2021/07/08 01:42:09;;;;;;;2.10;1.90;;;;;;;16.52;73.26;99177.04;262328;1090;26043;-72
2021/07/08 01:47:12;;;;;;;2.50;1.70;;;;;;;16.48;73.45;99166.08;262129;1090;26311;-72
2021/07/08 01:52:17;;;;;;;3.75;2.85;;;;;;;16.47;73.49;99153.66;262968;1089;23708;-72
2021/07/08 02:03:06;;;;;;;2.00;1.75;;;;;;;16.50;73.72;99150.31;262352;1090;22748;-72
2021/07/08 02:08:10;;;;;;;2.15;1.80;;;;;;;16.54;73.56;99156.69;262466;1090;24342;-72
2021/07/08 02:13:14;;;;;;;1.95;1.60;;;;;;;16.57;74.04;99166.86;262464;1090;22815;-71
2021/07/08 02:18:19;;;;;;;2.25;1.50;;;;;;;16.59;74.12;99180.06;262997;1090;22790;-72
2021/07/08 02:23:28;;;;;;;3.55;2.10;;;;;;;16.62;73.75;99192.16;262684;1089;22849;-72
2021/07/08 02:28:32;;;;;;;2.10;1.87;;;;;;;16.65;73.83;99199.63;262478;1090;25749;-73
2021/07/08 02:33:37;;;;;;;2.20;1.45;;;;;;;16.66;73.90;99206.64;262414;1090;22878;-72
2021/07/08 02:38:41;;;;;;;5.43;2.20;;;;;;;16.70;73.99;99204.89;262400;1088;27115;-72
2021/07/08 02:43:44;;;;;;;2.20;1.83;;;;;;;16.73;74.03;99207.77;262332;1089;23328;-71
2021/07/08 02:48:48;;;;;;;1.90;1.60;;;;;;;16.75;74.05;99216.34;262296;1089;23001;-72
2021/07/08 02:54:02;;;;;;;2.80;1.85;;;;;;;16.75;73.99;99216.34;262681;1089;27555;-71
2021/07/08 02:59:13;;;;;;;2.85;1.70;;;;;;;16.77;73.94;99218.72;262736;1089;22846;-72
2021/07/08 03:04:29;;;;;;;3.05;1.40;;;;;;;16.80;74.04;99215.38;262746;1089;22758;-75
2021/07/08 03:09:37;;;;;;;3.05;1.55;;;;;;;16.83;74.15;99214.77;262417;1090;22793;-70
2021/07/08 03:14:41;;;;;;;1.83;1.50;;;;;;;16.90;74.32;99212.39;262360;1090;24340;-72
2021/07/08 03:19:44;;;;;;;3.05;2.25;;;;;;;16.97;74.25;99205.69;262463;1090;22783;-72
2021/07/08 03:25:04;;;;;;;3.40;2.20;;;;;;;17.08;74.09;99201.53;262859;1089;22838;-71
2021/07/08 03:30:28;;;;;;;2.50;1.80;;;;;;;17.27;74.06;99195.77;262730;1090;22869;-72
2021/07/08 03:35:33;;;;;;;2.60;2.00;;;;;;;17.39;73.62;99195.91;262343;1090;22840;-72
2021/07/08 03:40:37;;;;;;;5.67;2.00;;;;;;;17.67;73.67;99206.33;262271;1090;22770;-72
2021/07/08 03:45:40;;;;;;;3.10;2.25;;;;;;;18.01;73.65;99190.25;262394;1089;25835;-72
2021/07/08 03:50:48;;;;;;;3.10;2.45;;;;;;;18.37;73.00;99161.77;262413;1090;22985;-71
2021/07/08 03:56:04;;;;;;;2.40;2.00;;;;;;;18.63;71.95;99165.09;262351;1089;25986;-71
2021/07/08 04:01:21;;;;;;;2.87;2.10;;;;;;;18.95;71.69;99170.87;262219;1090;22956;-73
2021/07/08 04:06:34;;;;;;;3.10;2.15;;;;;;;19.01;70.82;99178.81;262320;1088;22766;-72
2021/07/08 04:11:54;;;;;;;3.03;1.83;;;;;;;19.11;70.45;99183.81;261977;1090;22858;-71
2021/07/08 04:17:00;;;;;;;2.50;1.70;;;;;;;19.11;70.43;99179.19;262391;1090;22771;-71
2021/07/08 04:22:05;;;;;;;2.10;1.63;;;;;;;19.08;70.13;99204.30;261854;1089;22779;-71
2021/07/08 04:27:09;;;;;;;2.15;1.90;;;;;;;18.98;69.88;99205.52;262437;1090;22838;-72
2021/07/08 04:32:13;;;;;;;3.57;2.40;;;;;;;18.93;69.77;99207.64;262205;1089;22848;-73
2021/07/08 04:37:31;;;;;;;3.23;2.33;;;;;;;18.87;69.92;99206.21;262118;1090;22821;-71
2021/07/08 04:42:52;;;;;;;2.30;1.90;;;;;;;18.92;69.86;99208.77;262498;1090;22808;-72
2021/07/08 04:48:00;;;;;;;3.20;2.30;;;;;;;18.97;69.77;99195.77;262799;1090;22793;-73
2021/07/08 04:53:29;;;;;;;;;;;;;;;;;;;;;
2021/07/08 04:58:33;;;;;;;2.98;2.55;;;;;;;18.99;70.22;99162.86;262720;1089;23432;-72
2021/07/08 05:03:37;;;;;;;4.00;2.50;;;;;;;18.81;70.46;99165.70;262578;1090;23589;-72
2021/07/08 05:08:41;;;;;;;2.30;2.03;;;;;;;18.63;70.86;99118.97;262614;1090;22780;-72
2021/07/08 05:13:44;;;;;;;5.67;2.90;;;;;;;18.35;71.59;99080.74;262750;1089;22793;-72
2021/07/08 05:18:49;;;;;;;4.00;2.70;;;;;;;18.03;72.76;99125.66;262731;1090;22785;-72
2021/07/08 05:23:57;;;;;;;4.70;4.20;;;;;;;17.85;73.62;99131.17;262575;1089;22835;-72
2021/07/08 05:29:00;;;;;;;5.40;4.27;;;;;;;17.78;74.49;99130.87;262444;1088;23438;-70
2021/07/08 05:34:04;;;;;;;3.93;3.40;;;;;;;17.80;74.95;99136.77;261717;1089;22891;-71
2021/07/08 05:39:08;;;;;;;3.00;2.70;;;;;;;17.86;75.77;99138.16;262712;1090;22911;-74
2021/07/08 05:44:12;;;;;;;2.90;2.70;;;;;;;18.05;76.08;99129.63;262894;1089;22805;-74
2021/07/08 05:49:18;;;;;;;3.70;2.85;;;;;;;18.34;76.10;99132.60;262597;1090;22873;-74
2021/07/08 05:54:22;;;;;;;4.25;3.65;;;;;;;18.72;76.54;99151.44;263186;1090;22744;-73
2021/07/08 06:04:47;;;;;;;5.57;3.17;;;;;;;19.93;75.80;99177.58;262950;1090;22792;-73
2021/07/08 06:09:54;;;;;;;3.17;2.90;;;;;;;20.16;73.71;99160.78;262791;1090;23465;-73
2021/07/08 06:15:07;;;;;;;3.73;2.83;;;;;;;20.48;73.88;99161.74;262373;1089;24213;-73
2021/07/08 06:20:18;;;;;;;5.53;2.58;;;;;;;20.83;73.33;99165.81;262813;1089;27187;-74
2021/07/08 06:25:49;;;;;;;3.38;3.08;;;;;;;20.77;71.98;99169.94;263196;1087;22798;-73
2021/07/08 06:38:34;;;;;;;3.80;3.48;;;;;;;20.57;70.61;99164.31;262526;1089;26616;-73
2021/07/08 06:45:18;;;;;;;5.03;3.15;;;;;;;21.02;71.92;99140.66;263245;1089;24045;-73
2021/07/08 06:58:18;;;;;;;;;;;;;;;;;;;;;
2021/07/08 07:05:01;;;;;;;;;;;;;;;;;;;;;
2021/07/08 07:10:17;;;;;;;5.23;4.30;;;;;;;21.83;69.78;99151.22;262729;1089;22796;-73
2021/07/08 07:15:42;;;;;;;5.95;4.53;;;;;;;21.98;69.43;99146.88;262545;1089;26216;-73
2021/07/08 07:21:02;;;;;;;6.25;5.35;;;;;;;22.18;68.94;99150.42;262571;1089;22950;-72
2021/07/08 07:26:14;;;;;;;7.45;5.95;;;;;;;22.34;68.47;99150.41;262574;1090;22974;-72
2021/07/08 07:31:20;;;;;;;9.78;6.10;;;;;;;22.61;68.83;99155.20;262292;1089;22757;-72
2021/07/08 07:36:26;;;;;;;8.30;5.98;;;;;;;22.94;68.12;99146.48;262375;1090;23189;-72
2021/07/08 07:42:16;;;;;;;7.20;5.65;;;;;;;23.08;67.30;99135.02;262690;1090;22730;-73
2021/07/08 07:48:44;;;;;;;;;;;;;;;;;;;;;
2021/07/08 07:54:35;;;;;;;5.98;5.20;;;;;;;23.94;66.31;99108.30;262279;1090;26472;-73
2021/07/08 07:59:41;;;;;;;6.77;5.20;;;;;;;24.00;66.02;99122.44;262400;1089;22781;-75
2021/07/08 08:05:08;;;;;;;7.35;5.48;;;;;;;24.22;65.30;99110.61;262968;1087;22763;-73
2021/07/08 08:10:14;;;;;;;10.58;5.13;;;;;;;24.50;65.36;99108.56;264718;1089;27423;-72
2021/07/08 08:15:19;;;;;;;7.23;5.68;;;;;;;24.80;64.98;99107.76;262317;1090;22845;-74
2021/07/08 08:20:22;;;;;;;6.03;5.43;;;;;;;25.17;64.01;99106.91;262929;1089;22796;-73
2021/07/08 08:25:28;;;;;;;5.73;4.87;;;;;;;25.36;63.73;99116.89;262903;1089;22742;-73
2021/07/08 08:30:32;;;;;;;6.90;5.23;;;;;;;25.59;62.95;99108.45;262916;1089;25826;-73
2021/07/08 08:35:35;;;;;;;6.03;5.13;;;;;;;25.79;62.42;99106.22;262880;1089;22924;-73
2021/07/08 08:40:39;;;;;;;6.35;5.18;;;;;;;25.89;62.57;99104.70;262944;1090;23369;-73
2021/07/08 08:45:47;;;;;;;6.13;5.15;;;;;;;26.07;61.69;99111.09;262993;1089;22758;-74
2021/07/08 08:51:01;;;;;;;7.33;5.50;;;;;;;26.42;61.60;99106.92;263019;1090;22757;-76
2021/07/08 08:56:23;;;;;;;5.53;4.93;;;;;;;26.87;60.85;99103.91;262713;1089;22888;-74
2021/07/08 09:01:27;;;;;;;6.78;5.90;;;;;;;27.07;59.27;99092.55;262431;1088;22857;-75
2021/07/08 09:06:39;;;;;;;6.58;5.65;;;;;;;26.96;58.98;99093.34;262988;1088;22793;-73
2021/07/08 09:11:46;;;;;;;8.58;6.30;;;;;;;26.98;58.74;99106.69;262618;1089;22793;-74
2021/07/08 09:16:56;;;;;;;9.08;6.28;;;;;;;26.77;57.79;99107.44;262492;1090;22765;-73
2021/07/08 09:22:02;;;;;;;7.43;6.63;;;;;;;26.62;58.27;99098.34;262558;1090;22915;-75
2021/07/08 09:27:14;;;;;;;6.75;6.00;;;;;;;26.61;58.41;99102.26;262474;1090;22848;-74
2021/07/08 09:32:23;;;;;;;8.68;6.75;;;;;;;26.62;57.99;99106.58;262259;1090;22786;-75
2021/07/08 09:37:43;;;;;;;7.03;6.33;;;;;;;26.53;58.37;99095.20;263116;1089;22775;-73
2021/07/08 09:42:53;;;;;;;8.95;6.80;;;;;;;26.63;58.46;99086.96;269806;1089;23262;-71
2021/07/08 09:48:19;;;;;;;8.23;6.55;;;;;;;26.84;58.23;99079.19;269765;1090;22574;-73
2021/07/08 09:53:26;;;;;;;7.95;7.15;;;;;;;26.91;57.99;99073.70;263336;1088;22760;-73
2021/07/08 09:58:31;;;;;;;9.48;7.35;;;;;;;26.95;57.77;99063.49;262583;1089;24434;-72
2021/07/08 10:03:53;;;;;;;9.45;8.55;;;;;;;26.76;57.25;99064.64;262909;1090;22904;-74
2021/07/08 10:09:18;;;;;;;8.50;7.65;;;;;;;26.76;57.79;99070.14;262773;1090;22840;-72
2021/07/08 10:14:24;;;;;;;14.08;9.38;;;;;;;26.93;57.96;99060.34;264892;1090;24305;-72
2021/07/08 10:19:31;;;;;;;12.05;9.00;;;;;;;27.10;57.54;99067.81;262992;1090;22805;-72
2021/07/08 10:24:45;;;;;;;14.35;8.75;;;;;;;27.19;57.04;99056.41;263304;1090;22749;-73
2021/07/08 10:29:52;;;;;;;7.87;6.43;;;;;;;27.42;57.57;99057.98;263826;1089;22805;-72
2021/07/08 10:34:55;;;;;;;10.30;7.35;;;;;;;27.61;57.30;99046.55;263021;1090;23402;-74
2021/07/08 10:40:52;;;;;;;11.35;7.65;;;;;;;27.89;56.93;99035.86;263697;1089;22759;-73
2021/07/08 10:46:02;;;;;;;8.73;7.87;;;;;;;28.02;56.10;99031.48;263747;1090;22841;-74
2021/07/08 10:51:47;;;;;;;9.30;8.10;;;;;;;28.04;56.23;99023.63;269808;1089;22672;-73
2021/07/08 10:57:00;;;;;;;10.48;9.55;;;;;;;28.19;56.32;99026.30;269835;1088;22554;-75
2021/07/08 11:02:55;;;;;;;8.30;6.80;;;;;;;28.54;55.95;99025.29;269540;1089;22525;-77
2021/07/08 11:08:12;;;;;;;10.80;9.50;;;;;;;28.98;55.60;99020.28;269771;1089;22529;-75
2021/07/08 11:13:45;;;;;;;11.20;10.10;;;;;;;29.18;55.00;99017.73;265164;1090;22800;-72
2021/07/08 11:19:02;;;;;;;12.08;10.65;;;;;;;29.23;53.32;99028.33;262512;1089;22859;-79
2021/07/08 11:24:42;;;;;;;13.28;11.95;;;;;;;29.16;53.13;99020.89;262649;1089;22793;-74
2021/07/08 11:29:54;;;;;;;12.75;11.45;;;;;;;29.25;53.31;99006.65;262634;1090;25591;-73
2021/07/08 11:35:17;;;;;;;13.78;11.33;;;;;;;29.30;53.49;98991.65;263301;1088;22833;-73
2021/07/08 11:40:24;;;;;;;12.08;10.88;;;;;;;29.36;53.00;98995.51;262722;1088;22730;-74
2021/07/08 11:45:33;;;;;;;13.23;11.50;;;;;;;29.45;53.27;98995.02;262363;1090;22799;-73
2021/07/08 11:50:49;;;;;;;13.23;12.00;;;;;;;29.40;52.56;98992.73;262754;1088;23010;-73
2021/07/08 11:56:18;;;;;;;;;;;;;;;;;;;;;
2021/07/08 12:01:34;;;;;;;15.95;11.33;;;;;;;29.46;52.80;98972.53;263728;1090;22784;-73
2021/07/08 12:07:19;;;;;;;10.68;9.10;;;;;;;29.50;53.44;98961.45;262489;1089;22753;-73
2021/07/08 12:12:42;;;;;;;9.78;8.93;;;;;;;29.33;53.89;98958.48;263173;1089;22772;-73
2021/07/08 12:18:21;;;;;;;10.23;9.33;;;;;;;29.11;54.14;98955.14;262728;1089;24518;-73
2021/07/08 12:23:43;;;;;;;9.48;8.65;;;;;;;28.93;54.80;98946.27;263439;1089;22839;-72
2021/07/08 12:28:48;;;;;;;11.63;9.88;;;;;;;28.81;55.34;98945.59;262612;1090;22851;-72
2021/07/08 12:34:42;;;;;;;10.40;9.50;;;;;;;28.80;55.76;98943.25;262674;1089;23337;-72
2021/07/08 12:40:17;;;;;;;11.03;10.07;;;;;;;28.68;55.92;98941.77;262526;1088;27420;-73
2021/07/08 12:45:25;;;;;;;11.08;10.13;;;;;;;28.63;56.42;98950.48;262720;1088;25192;-73
2021/07/08 12:51:09;;;;;;;10.90;9.93;;;;;;;28.65;56.86;98939.83;262590;1089;22770;-73
2021/07/08 12:56:15;;;;;;;10.38;9.48;;;;;;;28.72;57.19;98930.72;262488;1089;22918;-71
2021/07/08 13:02:00;;;;;;;;;;;;;;;;;;;;;
2021/07/08 13:07:09;;;;;;;11.75;10.63;;;;;;;28.97;56.66;98938.75;262781;1090;23006;-73
2021/07/08 13:12:32;;;;;;;11.98;10.85;;;;;;;28.92;56.41;98933.67;263049;1089;22815;-78
2021/07/08 13:17:43;;;;;;;11.65;10.60;;;;;;;28.98;56.67;98923.78;263118;1090;22931;-73
2021/07/08 13:22:47;;;;;;;12.03;10.90;;;;;;;29.07;56.86;98920.53;262238;1089;22856;-73
2021/07/08 13:28:19;;;;;;;11.83;10.93;;;;;;;29.14;56.22;98910.22;262448;1089;22771;-72
2021/07/08 13:33:40;;;;;;;12.58;11.58;;;;;;;29.24;56.30;98910.52;262728;1089;22968;-73
2021/07/08 13:39:05;;;;;;;13.43;12.23;;;;;;;29.33;55.96;98916.34;262919;1089;23514;-73
2021/07/08 13:44:30;;;;;;;12.60;11.50;;;;;;;29.46;56.08;98913.81;262905;1089;22943;-74
2021/07/08 13:50:02;;;;;;;13.08;11.95;;;;;;;29.67;56.24;98902.48;262202;1090;25986;-74
2021/07/08 13:55:12;;;;;;;14.68;13.18;;;;;;;29.89;55.61;98893.17;262718;1088;22843;-73
2021/07/08 14:00:20;;;;;;;13.68;12.38;;;;;;;30.01;55.14;98893.38;262732;1090;23711;-73
2021/07/08 14:05:23;;;;;;;13.48;12.30;;;;;;;30.10;55.03;98889.31;263348;1088;22839;-74
2021/07/08 14:10:26;;;;;;;13.95;12.75;;;;;;;30.24;55.02;98886.31;263356;1089;22800;-73
2021/07/08 14:15:31;;;;;;;13.85;12.50;;;;;;;30.37;55.14;98884.53;262831;1089;22778;-73
2021/07/08 14:20:38;;;;;;;15.05;11.68;;;;;;;30.54;55.06;98887.42;262213;1090;22846;-72
2021/07/08 14:25:47;;;;;;;12.70;11.60;;;;;;;30.66;54.60;98872.22;262439;1088;26015;-74
2021/07/08 14:30:51;;;;;;;12.93;11.73;;;;;;;30.84;54.67;98872.67;262573;1090;22921;-75
2021/07/08 14:35:58;;;;;;;13.88;12.68;;;;;;;30.92;53.87;98862.27;262235;1090;22930;-74
2021/07/08 14:41:26;;;;;;;14.13;12.83;;;;;;;31.08;54.03;98863.58;262403;1090;22927;-73
2021/07/08 14:46:34;;;;;;;12.53;11.53;;;;;;;31.19;53.91;98861.38;262658;1089;25935;-74
2021/07/08 14:51:58;;;;;;;;;;;;;;;31.21;53.28;98856.18;261961;1089;24298;-73
2021/07/08 14:57:05;;;;;;;14.08;12.73;;;;;;;31.21;53.25;98851.44;262785;1089;25563;-74
2021/07/08 15:02:11;;;;;;;14.78;13.23;;;;;;;31.32;53.15;98847.66;262690;1090;23613;-74
2021/07/08 15:07:17;;;;;;;13.10;11.98;;;;;;;31.37;52.83;98838.86;262140;1089;22831;-74
2021/07/08 15:12:21;;;;;;;12.30;11.20;;;;;;;31.37;52.68;98833.33;262502;1089;22775;-75
2021/07/08 15:17:48;;;;;;;14.23;13.03;;;;;;;31.40;52.83;98815.86;262810;1090;22761;-73
2021/07/08 15:22:53;;;;;;;13.43;12.23;;;;;;;31.47;52.80;98807.39;262438;1090;22847;-73
2021/07/08 15:27:57;;;;;;;13.88;12.78;;;;;;;31.56;52.83;98804.03;262828;1089;22883;-74
2021/07/08 15:33:01;;;;;;;14.23;12.65;;;;;;;31.64;52.44;98807.45;261933;1089;24337;-73
2021/07/08 15:38:04;;;;;;;13.80;12.58;;;;;;;31.73;52.79;98802.88;262036;1090;23340;-74
2021/07/08 15:43:07;;;;;;;13.68;12.48;;;;;;;31.76;52.47;98809.55;262812;1090;22832;-74
2021/07/08 15:48:19;;;;;;;13.68;12.58;;;;;;;31.65;52.32;98795.18;262796;1090;22914;-74
2021/07/08 15:53:42;;;;;;;13.88;12.65;;;;;;;31.60;52.47;98787.38;262452;1090;22799;-74
2021/07/08 15:58:46;;;;;;;13.98;12.60;;;;;;;31.54;52.14;98789.86;262783;1089;22860;-74
2021/07/08 16:03:51;;;;;;;13.88;12.63;;;;;;;31.49;52.33;98782.05;262887;1090;22776;-72
2021/07/08 16:08:54;;;;;;;13.58;12.50;;;;;;;31.41;52.64;98784.22;262473;1090;24234;-73
2021/07/08 16:13:58;;;;;;;13.80;12.70;;;;;;;31.40;53.19;98769.58;262857;1090;23996;-74
2021/07/08 16:19:03;;;;;;;14.43;13.08;;;;;;;31.29;53.45;98769.05;262528;1089;24304;-72
2021/07/08 16:24:07;;;;;;;14.37;13.07;;;;;;;31.24;53.39;98772.31;261982;1089;22741;-72
2021/07/08 16:29:10;;;;;;;14.00;12.73;;;;;;;31.29;53.62;98768.28;262770;1089;24366;-74
2021/07/08 16:34:14;;;;;;;14.80;13.40;;;;;;;31.22;54.07;98771.98;262474;1090;25964;-74
2021/07/08 16:39:21;;;;;;;15.58;14.13;;;;;;;31.07;54.17;98768.73;262543;1089;26241;-73
2021/07/08 16:45:00;;;;;;;16.07;14.57;;;;;;;30.91;54.39;98763.11;262753;1089;22834;-72
2021/07/08 16:50:45;;;;;;;15.05;13.83;;;;;;;30.84;54.65;98755.77;262380;1089;22757;-73
2021/07/08 16:55:52;;;;;;;15.58;14.23;;;;;;;30.82;55.34;98752.63;262745;1089;22777;-73
2021/07/08 17:01:33;;;;;;;14.95;13.75;;;;;;;30.91;55.27;98733.49;262554;1090;25852;-74
2021/07/08 17:07:08;;;;;;;15.73;14.35;;;;;;;30.94;55.30;98737.39;262630;1089;22840;-73
2021/07/08 17:12:12;;;;;;;17.70;16.10;;;;;;;30.88;55.88;98729.59;262534;1089;22838;-74
2021/07/08 17:17:18;;;;;;;17.75;16.15;;;;;;;31.35;55.74;98722.27;262405;1089;24061;-73
2021/07/08 17:22:21;;;;;;;16.88;15.48;;;;;;;31.88;55.34;98714.67;262052;1090;22921;-73
2021/07/08 17:27:38;;;;;;;18.28;16.63;;;;;;;32.11;54.66;98725.98;261905;1090;22818;-76
2021/07/08 17:33:02;;;;;;;18.10;16.60;;;;;;;32.19;54.24;98716.30;261927;1089;22860;-72
2021/07/08 17:38:06;;;;;;;17.53;16.10;;;;;;;32.27;54.11;98719.66;261853;1090;22765;-73
2021/07/08 17:43:14;;;;;;;18.97;17.27;;;;;;;31.93;53.85;98718.13;262776;1089;22818;-73
2021/07/08 17:48:20;;;;;;;19.35;17.65;;;;;;;31.25;54.03;98720.55;262601;1090;22760;-74
2021/07/08 17:53:24;;;;;;;18.48;16.83;;;;;;;30.62;55.18;98725.78;262127;1089;22756;-72
2021/07/08 17:58:27;;;;;;;20.20;18.43;;;;;;;30.01;55.90;98719.40;262612;1090;22917;-73
2021/07/08 18:03:30;;;;;;;20.33;18.43;;;;;;;29.47;57.22;98705.69;262451;1090;22743;-73
2021/07/08 18:08:34;;;;;;;21.43;19.18;;;;;;;29.08;58.09;98715.28;262345;1090;24339;-73
2021/07/08 18:13:46;;;;;;;21.10;19.25;;;;;;;28.67;58.83;98720.52;262450;1090;22883;-74
2021/07/08 18:18:50;;;;;;;20.48;18.63;;;;;;;28.27;59.58;98719.38;262831;1090;22847;-73
2021/07/08 18:23:54;;;;;;;21.90;19.90;;;;;;;27.91;60.40;98714.17;261883;1090;22772;-72
2021/07/08 18:28:57;;;;;;;23.45;21.23;;;;;;;27.61;61.32;98708.13;261980;1088;22783;-74
2021/07/08 18:34:08;;;;;;;22.97;20.93;;;;;;;27.42;62.30;98701.22;261859;1090;22928;-73
2021/07/08 18:39:31;;;;;;;22.57;20.47;;;;;;;27.22;62.61;98719.39;262684;1088;22914;-74
2021/07/08 18:44:34;;;;;;;24.18;21.90;;;;;;;26.99;63.77;98720.70;262162;1090;22767;-73
2021/07/08 18:49:45;;;;;;;22.78;20.45;;;;;;;26.80;63.95;98719.20;262478;1090;22780;-72
2021/07/08 18:54:51;;;;;;;24.53;22.38;;;;;;;26.60;64.45;98729.86;262474;1090;22758;-74
2021/07/08 18:59:55;;;;;;;23.53;21.15;;;;;;;26.41;65.40;98736.58;262499;1089;22753;-72
2021/07/08 19:04:58;;;;;;;24.55;22.20;;;;;;;26.27;66.34;98718.97;261859;1090;22788;-73
2021/07/08 19:10:02;;;;;;;23.48;21.15;;;;;;;26.16;66.74;98726.42;262949;1090;22783;-73
2021/07/08 19:15:09;;;;;;;23.88;21.58;;;;;;;26.05;67.04;98740.17;262413;1090;22760;-72
2021/07/08 19:20:13;;;;;;;23.05;21.03;;;;;;;25.95;67.01;98713.48;262009;1090;22768;-73
2021/07/08 19:25:20;;;;;;;21.60;19.60;;;;;;;25.87;67.49;98704.48;261898;1090;26356;-73
2021/07/08 19:30:25;;;;;;;22.43;20.23;;;;;;;25.77;68.06;98713.48;262436;1089;23276;-73
2021/07/08 19:35:28;;;;;;;24.78;22.35;;;;;;;25.66;68.50;98708.02;262738;1090;22790;-73
2021/07/08 19:40:32;;;;;;;23.55;21.43;;;;;;;25.61;68.88;98702.91;262090;1090;23064;-74
2021/07/08 19:45:38;;;;;;;23.35;21.15;;;;;;;25.53;69.23;98693.11;262392;1090;22750;-74
2021/07/08 19:56:23;;;;;;;24.17;21.57;;;;;;;25.36;69.95;98691.93;262733;1090;22902;-73
2021/07/08 20:01:26;;;;;;;24.47;21.87;;;;;;;25.30;70.44;98691.50;262370;1090;22792;-73
2021/07/08 20:06:30;;;;;;;24.33;21.93;;;;;;;25.29;70.80;98695.41;262954;1089;22738;-74
2021/07/08 20:11:33;;;;;;;25.63;23.13;;;;;;;25.25;70.57;98695.42;262687;1090;22783;-74
2021/07/08 20:16:38;;;;;;;25.28;22.68;;;;;;;25.18;70.91;98692.64;262773;1090;22915;-74
2021/07/08 20:21:43;;;;;;;26.55;23.93;;;;;;;25.12;71.90;98691.47;262802;1089;22763;-73
2021/07/08 20:26:47;;;;;;;26.38;23.88;;;;;;;25.05;71.67;98673.05;262910;1089;22903;-72
2021/07/08 20:31:50;;;;;;;25.80;23.28;;;;;;;25.05;72.08;98664.05;262718;1089;26219;-74
2021/07/08 20:36:54;;;;;;;26.10;23.75;;;;;;;25.07;72.50;98659.75;262783;1090;25858;-74
2021/07/08 20:41:57;;;;;;;26.05;23.55;;;;;;;25.01;72.51;98653.07;262982;1090;22925;-74
2021/07/08 20:47:01;;;;;;;24.93;22.45;;;;;;;24.98;72.62;98640.16;262399;1088;22793;-72
2021/07/08 20:52:06;;;;;;;24.35;22.10;;;;;;;24.93;72.38;98632.31;262867;1090;22837;-73
2021/07/08 20:57:23;;;;;;;25.90;23.30;;;;;;;24.80;72.66;98631.13;262771;1089;27514;-74
2021/07/08 21:02:47;;;;;;;24.48;22.18;;;;;;;24.78;73.14;98639.73;262718;1090;22760;-73
2021/07/08 21:07:50;;;;;;;26.40;23.93;;;;;;;24.70;73.40;98635.40;262738;1089;22837;-73
2021/07/08 21:12:54;;;;;;;24.93;22.53;;;;;;;24.65;73.28;98616.59;262789;1090;23332;-74
2021/07/08 21:17:58;;;;;;;25.60;23.20;;;;;;;24.70;73.65;98606.05;263107;1090;22770;-73
2021/07/08 21:23:04;;;;;;;25.23;22.83;;;;;;;24.71;73.83;98610.36;262593;1089;22795;-74
2021/07/08 21:28:07;;;;;;;26.40;23.70;;;;;;;24.72;73.76;98611.94;262544;1090;22911;-74
2021/07/08 21:33:12;;;;;;;27.38;24.68;;;;;;;24.62;73.82;98618.15;262722;1090;22783;-73
2021/07/08 21:38:15;;;;;;;27.53;24.77;;;;;;;24.51;74.15;98640.01;262727;1089;22762;-72
2021/07/08 21:43:19;;;;;;;26.83;23.73;;;;;;;24.29;73.84;98669.23;262752;1090;25852;-74
2021/07/08 21:48:23;;;;;;;25.70;23.20;;;;;;;23.85;74.03;98724.80;262805;1090;22762;-72
2021/07/08 21:53:26;;;;;;;25.35;22.80;;;;;;;23.46;74.58;98763.52;262722;1088;25940;-73
2021/07/08 21:58:30;;;;;;;26.40;23.75;;;;;;;23.03;74.70;98753.66;262813;1090;22824;-72
2021/07/08 22:03:33;;;;;;;24.63;22.33;;;;;;;22.72;74.93;98779.39;262897;1088;22808;-74
2021/07/08 22:08:47;;;;;;;24.68;22.25;;;;;;;22.37;75.73;98808.56;262423;1090;23347;-72
2021/07/08 22:14:03;;;;;;;22.45;20.18;;;;;;;22.11;76.13;98792.14;262402;1089;22830;-72
2021/07/08 22:19:08;;;;;;;24.78;22.28;;;;;;;21.92;76.33;98784.81;262758;1089;22796;-73
2021/07/08 22:24:12;;;;;;;25.65;23.02;;;;;;;21.81;77.78;98781.89;262508;1090;22867;-73
2021/07/08 22:29:16;;;;;;;24.43;21.90;;;;;;;21.76;77.85;98777.54;262480;1090;22765;-73
2021/07/08 22:34:23;;;;;;;23.33;20.85;;;;;;;21.75;78.17;98780.63;262437;1089;22924;-73
2021/07/08 22:39:47;;;;;;;22.73;20.55;;;;;;;21.74;78.55;98784.50;262734;1090;22761;-72
2021/07/08 22:44:51;;;;;;;24.10;21.70;;;;;;;21.74;79.08;98763.50;262819;1090;22766;-73
2021/07/08 22:49:55;;;;;;;22.03;19.90;;;;;;;21.78;78.92;98750.69;262934;1089;23471;-74
2021/07/08 22:55:01;;;;;;;21.55;19.43;;;;;;;21.83;79.13;98742.21;262388;1089;22794;-73
2021/07/08 23:00:11;;;;;;;21.13;19.03;;;;;;;21.90;78.82;98738.05;262655;1090;22838;-72
2021/07/08 23:05:15;;;;;;;20.60;18.55;;;;;;;21.99;78.55;98723.00;262627;1090;22754;-74
2021/07/08 23:10:19;;;;;;;20.30;18.38;;;;;;;22.09;78.73;98728.97;262582;1090;22801;-74
2021/07/08 23:15:25;;;;;;;20.18;18.03;;;;;;;22.21;78.88;98745.91;262439;1089;22760;-74
2021/07/08 23:20:28;;;;;;;18.83;16.98;;;;;;;22.32;78.42;98800.66;262800;1090;24313;-74
2021/07/08 23:25:33;;;;;;;17.20;15.38;;;;;;;22.38;78.13;98807.42;262789;1090;22904;-74
2021/07/08 23:30:37;;;;;;;16.50;15.00;;;;;;;22.37;77.54;98824.13;262729;1090;22752;-73
2021/07/08 23:35:41;;;;;;;15.43;13.98;;;;;;;22.36;77.58;98826.08;262865;1089;22796;-74
2021/07/08 23:40:44;;;;;;;12.48;11.28;;;;;;;22.29;77.58;98806.84;262423;1090;22740;-72
